sensor_id;sensor_type;location;lat;lon;timestamp;P1;durP1;ratioP1;P2;durP2;ratioP2
28459;SDS011;32528;45.712;9.192;2022-09-09T00:00:16;14.50;;;6.47;;
28459;SDS011;32528;45.712;9.192;2022-09-09T00:06:31;16.10;;;5.50;;
28459;SDS011;32528;45.712;9.192;2022-09-09T00:09:24;18.48;;;6.95;;
28459;SDS011;32528;45.712;9.192;2022-09-09T00:10:58;14.38;;;5.75;;
28459;SDS011;32528;45.712;9.192;2022-09-09T00:15:39;17.20;;;6.07;;
28459;SDS011;32528;45.712;9.192;2022-09-09T00:17:49;11.32;;;5.60;;
28459;SDS011;32528;45.712;9.192;2022-09-09T00:20:09;12.90;;;5.13;;
28459;SDS011;32528;45.712;9.192;2022-09-09T00:22:21;39.05;;;8.20;;
28459;SDS011;32528;45.712;9.192;2022-09-09T00:27:00;12.50;;;4.88;;
28459;SDS011;32528;45.712;9.192;2022-09-09T00:29:17;9.82;;;4.57;;
28459;SDS011;32528;45.712;9.192;2022-09-09T00:31:34;9.45;;;4.88;;
28459;SDS011;32528;45.712;9.192;2022-09-09T00:33:37;10.00;;;4.93;;
28459;SDS011;32528;45.712;9.192;2022-09-09T00:35:39;24.17;;;5.60;;
28459;SDS011;32528;45.712;9.192;2022-09-09T00:37:45;14.75;;;5.80;;
28459;SDS011;32528;45.712;9.192;2022-09-09T00:39:48;18.63;;;4.25;;
28459;SDS011;32528;45.712;9.192;2022-09-09T00:44:31;20.08;;;4.43;;
28459;SDS011;32528;45.712;9.192;2022-09-09T00:49:23;10.68;;;5.20;;
28459;SDS011;32528;45.712;9.192;2022-09-09T00:54:05;12.93;;;4.47;;
28459;SDS011;32528;45.712;9.192;2022-09-09T00:56:29;13.57;;;5.40;;
28459;SDS011;32528;45.712;9.192;2022-09-09T00:58:43;11.93;;;5.03;;
28459;SDS011;32528;45.712;9.192;2022-09-09T01:01:20;17.85;;;6.32;;
28459;SDS011;32528;45.712;9.192;2022-09-09T01:07:44;15.75;;;6.50;;
28459;SDS011;32528;45.712;9.192;2022-09-09T01:09:58;9.48;;;5.60;;
28459;SDS011;32528;45.712;9.192;2022-09-09T01:12:17;12.23;;;4.85;;
28459;SDS011;32528;45.712;9.192;2022-09-09T01:14:30;14.40;;;6.38;;
28459;SDS011;32528;45.712;9.192;2022-09-09T01:16:40;20.05;;;5.68;;
28459;SDS011;32528;45.712;9.192;2022-09-09T01:18:44;13.07;;;5.35;;
28459;SDS011;32528;45.712;9.192;2022-09-09T01:20:59;22.42;;;6.72;;
28459;SDS011;32528;45.712;9.192;2022-09-09T01:23:28;9.25;;;4.65;;
28459;SDS011;32528;45.712;9.192;2022-09-09T01:28:25;21.75;;;6.07;;
28459;SDS011;32528;45.712;9.192;2022-09-09T01:30:34;15.48;;;5.53;;
28459;SDS011;32528;45.712;9.192;2022-09-09T01:32:40;14.48;;;5.28;;
28459;SDS011;32528;45.712;9.192;2022-09-09T01:34:47;8.85;;;5.00;;
28459;SDS011;32528;45.712;9.192;2022-09-09T01:36:58;18.23;;;5.67;;
28459;SDS011;32528;45.712;9.192;2022-09-09T01:39:06;14.93;;;5.88;;
28459;SDS011;32528;45.712;9.192;2022-09-09T01:41:08;9.98;;;5.28;;
28459;SDS011;32528;45.712;9.192;2022-09-09T01:43:23;17.33;;;7.35;;
28459;SDS011;32528;45.712;9.192;2022-09-09T01:45:25;20.33;;;5.65;;
28459;SDS011;32528;45.712;9.192;2022-09-09T01:47:26;16.48;;;5.20;;
28459;SDS011;32528;45.712;9.192;2022-09-09T01:49:51;15.05;;;5.53;;
28459;SDS011;32528;45.712;9.192;2022-09-09T01:51:56;11.50;;;5.20;;
28459;SDS011;32528;45.712;9.192;2022-09-09T01:54:03;14.07;;;4.78;;
28459;SDS011;32528;45.712;9.192;2022-09-09T01:58:40;20.88;;;5.80;;
28459;SDS011;32528;45.712;9.192;2022-09-09T02:03:20;12.60;;;5.97;;
28459;SDS011;32528;45.712;9.192;2022-09-09T02:07:45;15.70;;;5.32;;
28459;SDS011;32528;45.712;9.192;2022-09-09T02:10:17;12.98;;;5.10;;
28459;SDS011;32528;45.712;9.192;2022-09-09T02:12:31;15.45;;;6.10;;
28459;SDS011;32528;45.712;9.192;2022-09-09T02:14:35;11.35;;;5.78;;
28459;SDS011;32528;45.712;9.192;2022-09-09T02:16:42;17.17;;;6.18;;
28459;SDS011;32528;45.712;9.192;2022-09-09T02:21:35;20.55;;;6.22;;
28459;SDS011;32528;45.712;9.192;2022-09-09T02:23:36;8.75;;;5.47;;
28459;SDS011;32528;45.712;9.192;2022-09-09T02:25:44;18.85;;;6.63;;
28459;SDS011;32528;45.712;9.192;2022-09-09T02:27:53;15.05;;;6.68;;
28459;SDS011;32528;45.712;9.192;2022-09-09T02:29:54;15.02;;;8.25;;
28459;SDS011;32528;45.712;9.192;2022-09-09T02:32:14;11.25;;;4.28;;
28459;SDS011;32528;45.712;9.192;2022-09-09T02:34:18;8.60;;;4.90;;
28459;SDS011;32528;45.712;9.192;2022-09-09T02:36:21;12.25;;;5.28;;
28459;SDS011;32528;45.712;9.192;2022-09-09T02:38:26;14.25;;;5.45;;
28459;SDS011;32528;45.712;9.192;2022-09-09T02:40:35;8.27;;;4.90;;
28459;SDS011;32528;45.712;9.192;2022-09-09T02:42:42;16.23;;;5.63;;
28459;SDS011;32528;45.712;9.192;2022-09-09T02:44:45;10.43;;;4.88;;
28459;SDS011;32528;45.712;9.192;2022-09-09T02:49:13;17.40;;;5.22;;
28459;SDS011;32528;45.712;9.192;2022-09-09T02:56:25;11.82;;;4.55;;
28459;SDS011;32528;45.712;9.192;2022-09-09T02:58:31;28.75;;;5.85;;
28459;SDS011;32528;45.712;9.192;2022-09-09T03:00:38;15.20;;;6.45;;
28459;SDS011;32528;45.712;9.192;2022-09-09T03:02:41;20.17;;;6.00;;
28459;SDS011;32528;45.712;9.192;2022-09-09T03:04:42;17.55;;;6.15;;
28459;SDS011;32528;45.712;9.192;2022-09-09T03:06:45;17.60;;;5.22;;
28459;SDS011;32528;45.712;9.192;2022-09-09T03:08:53;22.70;;;5.30;;
28459;SDS011;32528;45.712;9.192;2022-09-09T03:11:00;16.83;;;5.32;;
28459;SDS011;32528;45.712;9.192;2022-09-09T03:13:03;9.57;;;4.80;;
28459;SDS011;32528;45.712;9.192;2022-09-09T03:15:08;11.63;;;4.38;;
28459;SDS011;32528;45.712;9.192;2022-09-09T03:17:12;21.15;;;5.05;;
28459;SDS011;32528;45.712;9.192;2022-09-09T03:19:20;18.45;;;5.43;;
28459;SDS011;32528;45.712;9.192;2022-09-09T03:21:22;11.98;;;5.78;;
28459;SDS011;32528;45.712;9.192;2022-09-09T03:23:24;16.73;;;6.40;;
28459;SDS011;32528;45.712;9.192;2022-09-09T03:25:26;12.73;;;5.22;;
28459;SDS011;32528;45.712;9.192;2022-09-09T03:27:28;15.43;;;5.70;;
28459;SDS011;32528;45.712;9.192;2022-09-09T03:29:30;10.13;;;5.07;;
28459;SDS011;32528;45.712;9.192;2022-09-09T03:31:34;13.45;;;5.75;;
28459;SDS011;32528;45.712;9.192;2022-09-09T03:33:37;8.27;;;5.32;;
28459;SDS011;32528;45.712;9.192;2022-09-09T03:35:44;14.95;;;6.47;;
28459;SDS011;32528;45.712;9.192;2022-09-09T03:37:51;22.60;;;5.72;;
28459;SDS011;32528;45.712;9.192;2022-09-09T03:39:52;21.15;;;6.68;;
28459;SDS011;32528;45.712;9.192;2022-09-09T03:41:55;15.27;;;7.22;;
28459;SDS011;32528;45.712;9.192;2022-09-09T03:43:56;27.95;;;8.20;;
28459;SDS011;32528;45.712;9.192;2022-09-09T03:45:58;15.57;;;6.60;;
28459;SDS011;32528;45.712;9.192;2022-09-09T03:48:01;19.17;;;7.20;;
28459;SDS011;32528;45.712;9.192;2022-09-09T03:50:05;12.65;;;5.63;;
28459;SDS011;32528;45.712;9.192;2022-09-09T03:52:10;18.55;;;7.78;;
28459;SDS011;32528;45.712;9.192;2022-09-09T03:54:11;9.52;;;3.80;;
28459;SDS011;32528;45.712;9.192;2022-09-09T03:56:13;7.95;;;4.05;;
28459;SDS011;32528;45.712;9.192;2022-09-09T03:58:14;4.50;;;1.85;;
28459;SDS011;32528;45.712;9.192;2022-09-09T04:00:16;3.00;;;1.20;;
28459;SDS011;32528;45.712;9.192;2022-09-09T04:02:18;4.38;;;1.50;;
28459;SDS011;32528;45.712;9.192;2022-09-09T04:04:19;2.90;;;1.10;;
28459;SDS011;32528;45.712;9.192;2022-09-09T04:06:20;3.42;;;0.85;;
28459;SDS011;32528;45.712;9.192;2022-09-09T04:08:22;1.27;;;0.77;;
28459;SDS011;32528;45.712;9.192;2022-09-09T04:10:25;4.55;;;0.60;;
28459;SDS011;32528;45.712;9.192;2022-09-09T04:12:28;10.93;;;1.13;;
28459;SDS011;32528;45.712;9.192;2022-09-09T04:14:29;1.52;;;0.73;;
28459;SDS011;32528;45.712;9.192;2022-09-09T04:16:32;1.13;;;0.63;;
28459;SDS011;32528;45.712;9.192;2022-09-09T04:18:36;1.65;;;0.55;;
28459;SDS011;32528;45.712;9.192;2022-09-09T04:20:37;3.67;;;0.90;;
28459;SDS011;32528;45.712;9.192;2022-09-09T04:22:39;0.82;;;0.50;;
28459;SDS011;32528;45.712;9.192;2022-09-09T04:24:41;0.47;;;0.47;;
28459;SDS011;32528;45.712;9.192;2022-09-09T04:26:42;1.88;;;0.50;;
28459;SDS011;32528;45.712;9.192;2022-09-09T04:28:43;3.17;;;1.25;;
28459;SDS011;32528;45.712;9.192;2022-09-09T04:30:49;2.05;;;0.63;;
28459;SDS011;32528;45.712;9.192;2022-09-09T04:32:51;3.70;;;1.08;;
28459;SDS011;32528;45.712;9.192;2022-09-09T04:34:51;9.18;;;1.58;;
28459;SDS011;32528;45.712;9.192;2022-09-09T04:36:52;3.25;;;0.93;;
28459;SDS011;32528;45.712;9.192;2022-09-09T04:38:53;3.03;;;1.17;;
28459;SDS011;32528;45.712;9.192;2022-09-09T04:40:54;4.95;;;1.05;;
28459;SDS011;32528;45.712;9.192;2022-09-09T04:42:57;2.20;;;0.82;;
28459;SDS011;32528;45.712;9.192;2022-09-09T04:44:59;1.35;;;0.80;;
28459;SDS011;32528;45.712;9.192;2022-09-09T04:47:00;2.35;;;0.90;;
28459;SDS011;32528;45.712;9.192;2022-09-09T04:49:00;1.85;;;0.63;;
28459;SDS011;32528;45.712;9.192;2022-09-09T04:51:05;6.43;;;1.40;;
28459;SDS011;32528;45.712;9.192;2022-09-09T04:53:10;1.83;;;0.80;;
28459;SDS011;32528;45.712;9.192;2022-09-09T04:55:11;2.08;;;0.93;;
28459;SDS011;32528;45.712;9.192;2022-09-09T04:57:18;15.98;;;0.98;;
28459;SDS011;32528;45.712;9.192;2022-09-09T04:59:19;3.17;;;1.20;;
28459;SDS011;32528;45.712;9.192;2022-09-09T05:01:25;9.20;;;1.33;;
28459;SDS011;32528;45.712;9.192;2022-09-09T05:03:32;4.00;;;1.17;;
28459;SDS011;32528;45.712;9.192;2022-09-09T05:05:34;3.15;;;0.98;;
28459;SDS011;32528;45.712;9.192;2022-09-09T05:07:35;5.75;;;1.10;;
28459;SDS011;32528;45.712;9.192;2022-09-09T05:09:37;5.10;;;1.10;;
28459;SDS011;32528;45.712;9.192;2022-09-09T05:11:38;5.65;;;1.20;;
28459;SDS011;32528;45.712;9.192;2022-09-09T05:13:49;1.00;;;0.70;;
28459;SDS011;32528;45.712;9.192;2022-09-09T05:15:52;3.47;;;1.23;;
28459;SDS011;32528;45.712;9.192;2022-09-09T05:18:00;2.17;;;1.08;;
28459;SDS011;32528;45.712;9.192;2022-09-09T05:20:03;1.55;;;0.80;;
28459;SDS011;32528;45.712;9.192;2022-09-09T05:22:05;3.28;;;1.27;;
28459;SDS011;32528;45.712;9.192;2022-09-09T05:24:15;2.20;;;0.90;;
28459;SDS011;32528;45.712;9.192;2022-09-09T05:26:18;3.55;;;1.20;;
28459;SDS011;32528;45.712;9.192;2022-09-09T05:28:26;2.45;;;1.02;;
28459;SDS011;32528;45.712;9.192;2022-09-09T05:30:27;5.25;;;1.08;;
28459;SDS011;32528;45.712;9.192;2022-09-09T05:32:29;3.20;;;1.13;;
28459;SDS011;32528;45.712;9.192;2022-09-09T05:34:33;3.45;;;0.95;;
28459;SDS011;32528;45.712;9.192;2022-09-09T05:36:35;6.82;;;1.20;;
28459;SDS011;32528;45.712;9.192;2022-09-09T05:38:36;1.70;;;0.88;;
28459;SDS011;32528;45.712;9.192;2022-09-09T05:40:38;3.30;;;1.10;;
28459;SDS011;32528;45.712;9.192;2022-09-09T05:42:39;6.05;;;3.40;;
28459;SDS011;32528;45.712;9.192;2022-09-09T05:44:40;2.88;;;1.10;;
28459;SDS011;32528;45.712;9.192;2022-09-09T05:46:45;2.67;;;0.98;;
28459;SDS011;32528;45.712;9.192;2022-09-09T05:48:47;2.38;;;1.10;;
28459;SDS011;32528;45.712;9.192;2022-09-09T05:50:54;3.13;;;1.00;;
28459;SDS011;32528;45.712;9.192;2022-09-09T05:52:55;2.88;;;1.13;;
28459;SDS011;32528;45.712;9.192;2022-09-09T05:54:56;2.30;;;0.90;;
28459;SDS011;32528;45.712;9.192;2022-09-09T05:56:57;1.83;;;0.80;;
28459;SDS011;32528;45.712;9.192;2022-09-09T05:58:58;1.80;;;0.95;;
28459;SDS011;32528;45.712;9.192;2022-09-09T06:03:10;2.80;;;0.98;;
28459;SDS011;32528;45.712;9.192;2022-09-09T06:05:13;4.93;;;1.48;;
28459;SDS011;32528;45.712;9.192;2022-09-09T06:07:15;4.50;;;1.30;;
28459;SDS011;32528;45.712;9.192;2022-09-09T06:09:16;2.22;;;1.00;;
28459;SDS011;32528;45.712;9.192;2022-09-09T06:13:23;3.10;;;1.20;;
28459;SDS011;32528;45.712;9.192;2022-09-09T06:15:24;3.58;;;1.48;;
28459;SDS011;32528;45.712;9.192;2022-09-09T06:17:25;5.57;;;1.20;;
28459;SDS011;32528;45.712;9.192;2022-09-09T06:19:26;4.68;;;1.55;;
28459;SDS011;32528;45.712;9.192;2022-09-09T06:21:30;2.33;;;0.95;;
28459;SDS011;32528;45.712;9.192;2022-09-09T06:23:41;2.42;;;1.08;;
28459;SDS011;32528;45.712;9.192;2022-09-09T06:25:42;2.10;;;1.38;;
28459;SDS011;32528;45.712;9.192;2022-09-09T06:27:42;2.90;;;1.30;;
28459;SDS011;32528;45.712;9.192;2022-09-09T06:29:48;2.75;;;1.13;;
28459;SDS011;32528;45.712;9.192;2022-09-09T06:31:50;2.05;;;1.00;;
28459;SDS011;32528;45.712;9.192;2022-09-09T06:33:54;2.58;;;1.25;;
28459;SDS011;32528;45.712;9.192;2022-09-09T06:35:58;4.18;;;1.23;;
28459;SDS011;32528;45.712;9.192;2022-09-09T06:37:59;3.33;;;1.17;;
28459;SDS011;32528;45.712;9.192;2022-09-09T06:40:00;3.40;;;0.93;;
28459;SDS011;32528;45.712;9.192;2022-09-09T06:42:02;2.28;;;1.20;;
28459;SDS011;32528;45.712;9.192;2022-09-09T06:44:29;2.22;;;1.17;;
28459;SDS011;32528;45.712;9.192;2022-09-09T06:46:31;4.43;;;1.48;;
28459;SDS011;32528;45.712;9.192;2022-09-09T06:48:34;7.03;;;1.17;;
28459;SDS011;32528;45.712;9.192;2022-09-09T06:50:36;4.78;;;1.42;;
28459;SDS011;32528;45.712;9.192;2022-09-09T06:52:38;3.13;;;1.15;;
28459;SDS011;32528;45.712;9.192;2022-09-09T06:54:39;3.75;;;1.17;;
28459;SDS011;32528;45.712;9.192;2022-09-09T06:56:40;4.20;;;1.08;;
28459;SDS011;32528;45.712;9.192;2022-09-09T06:58:47;3.88;;;1.02;;
28459;SDS011;32528;45.712;9.192;2022-09-09T07:01:02;2.85;;;0.90;;
28459;SDS011;32528;45.712;9.192;2022-09-09T07:03:08;2.85;;;1.20;;
28459;SDS011;32528;45.712;9.192;2022-09-09T07:05:11;5.82;;;1.38;;
28459;SDS011;32528;45.712;9.192;2022-09-09T07:07:14;3.22;;;1.27;;
28459;SDS011;32528;45.712;9.192;2022-09-09T07:09:16;6.70;;;1.27;;
28459;SDS011;32528;45.712;9.192;2022-09-09T07:11:20;3.55;;;1.15;;
28459;SDS011;32528;45.712;9.192;2022-09-09T07:13:24;5.50;;;1.13;;
28459;SDS011;32528;45.712;9.192;2022-09-09T07:15:28;5.20;;;1.48;;
28459;SDS011;32528;45.712;9.192;2022-09-09T07:17:29;2.88;;;1.10;;
28459;SDS011;32528;45.712;9.192;2022-09-09T07:19:33;12.73;;;1.20;;
28459;SDS011;32528;45.712;9.192;2022-09-09T07:21:37;8.73;;;1.15;;
28459;SDS011;32528;45.712;9.192;2022-09-09T07:23:38;5.43;;;1.35;;
28459;SDS011;32528;45.712;9.192;2022-09-09T07:25:44;2.67;;;1.52;;
28459;SDS011;32528;45.712;9.192;2022-09-09T07:27:46;5.10;;;1.08;;
28459;SDS011;32528;45.712;9.192;2022-09-09T07:29:47;4.32;;;1.13;;
28459;SDS011;32528;45.712;9.192;2022-09-09T07:31:48;3.30;;;0.88;;
28459;SDS011;32528;45.712;9.192;2022-09-09T07:33:53;4.28;;;1.10;;
28459;SDS011;32528;45.712;9.192;2022-09-09T07:36:01;1.65;;;0.80;;
28459;SDS011;32528;45.712;9.192;2022-09-09T07:38:03;2.17;;;0.80;;
28459;SDS011;32528;45.712;9.192;2022-09-09T07:40:07;9.75;;;1.38;;
28459;SDS011;32528;45.712;9.192;2022-09-09T07:42:08;3.47;;;0.98;;
28459;SDS011;32528;45.712;9.192;2022-09-09T07:44:12;0.95;;;0.50;;
28459;SDS011;32528;45.712;9.192;2022-09-09T07:46:18;4.32;;;0.95;;
28459;SDS011;32528;45.712;9.192;2022-09-09T07:48:20;3.47;;;1.15;;
28459;SDS011;32528;45.712;9.192;2022-09-09T07:50:21;0.77;;;0.57;;
28459;SDS011;32528;45.712;9.192;2022-09-09T07:52:22;1.65;;;0.75;;
28459;SDS011;32528;45.712;9.192;2022-09-09T07:54:27;2.28;;;1.02;;
28459;SDS011;32528;45.712;9.192;2022-09-09T07:56:29;0.77;;;0.57;;
28459;SDS011;32528;45.712;9.192;2022-09-09T07:58:31;3.17;;;1.00;;
28459;SDS011;32528;45.712;9.192;2022-09-09T08:00:32;1.75;;;0.70;;
28459;SDS011;32528;45.712;9.192;2022-09-09T08:02:34;5.88;;;0.70;;
28459;SDS011;32528;45.712;9.192;2022-09-09T08:04:35;2.10;;;0.77;;
28459;SDS011;32528;45.712;9.192;2022-09-09T08:06:37;1.25;;;0.50;;
28459;SDS011;32528;45.712;9.192;2022-09-09T08:08:40;1.48;;;0.82;;
28459;SDS011;32528;45.712;9.192;2022-09-09T08:10:43;4.55;;;1.05;;
28459;SDS011;32528;45.712;9.192;2022-09-09T08:12:44;3.58;;;1.30;;
28459;SDS011;32528;45.712;9.192;2022-09-09T08:14:45;4.03;;;1.30;;
28459;SDS011;32528;45.712;9.192;2022-09-09T08:16:47;4.60;;;1.10;;
28459;SDS011;32528;45.712;9.192;2022-09-09T08:18:53;7.53;;;0.98;;
28459;SDS011;32528;45.712;9.192;2022-09-09T08:20:55;5.38;;;1.50;;
28459;SDS011;32528;45.712;9.192;2022-09-09T08:22:56;5.03;;;1.25;;
28459;SDS011;32528;45.712;9.192;2022-09-09T08:24:57;2.50;;;1.15;;
28459;SDS011;32528;45.712;9.192;2022-09-09T08:26:58;5.20;;;1.70;;
28459;SDS011;32528;45.712;9.192;2022-09-09T08:28:59;9.25;;;1.05;;
28459;SDS011;32528;45.712;9.192;2022-09-09T08:31:15;2.67;;;0.93;;
28459;SDS011;32528;45.712;9.192;2022-09-09T08:33:18;2.20;;;1.02;;
28459;SDS011;32528;45.712;9.192;2022-09-09T08:35:19;2.05;;;0.65;;
28459;SDS011;32528;45.712;9.192;2022-09-09T08:37:22;1.55;;;0.65;;
28459;SDS011;32528;45.712;9.192;2022-09-09T08:39:22;2.75;;;0.70;;
28459;SDS011;32528;45.712;9.192;2022-09-09T08:43:31;2.85;;;0.90;;
28459;SDS011;32528;45.712;9.192;2022-09-09T08:45:34;3.97;;;0.80;;
28459;SDS011;32528;45.712;9.192;2022-09-09T08:48:05;5.05;;;0.93;;
28459;SDS011;32528;45.712;9.192;2022-09-09T08:54:47;1.92;;;0.52;;
28459;SDS011;32528;45.712;9.192;2022-09-09T08:56:49;1.55;;;0.70;;
28459;SDS011;32528;45.712;9.192;2022-09-09T08:58:52;2.35;;;0.70;;
28459;SDS011;32528;45.712;9.192;2022-09-09T09:08:44;2.00;;;0.63;;
28459;SDS011;32528;45.712;9.192;2022-09-09T09:10:53;5.45;;;1.00;;
28459;SDS011;32528;45.712;9.192;2022-09-09T09:12:58;6.13;;;0.93;;
28459;SDS011;32528;45.712;9.192;2022-09-09T09:15:01;3.30;;;0.90;;
28459;SDS011;32528;45.712;9.192;2022-09-09T09:19:15;4.10;;;1.17;;
28459;SDS011;32528;45.712;9.192;2022-09-09T09:24:01;1.63;;;0.70;;
28459;SDS011;32528;45.712;9.192;2022-09-09T09:26:07;1.30;;;0.50;;
28459;SDS011;32528;45.712;9.192;2022-09-09T09:30:40;5.68;;;0.82;;
28459;SDS011;32528;45.712;9.192;2022-09-09T09:34:59;0.47;;;0.40;;
28459;SDS011;32528;45.712;9.192;2022-09-09T09:37:17;0.60;;;0.52;;
28459;SDS011;32528;45.712;9.192;2022-09-09T09:39:29;1.30;;;0.68;;
28459;SDS011;32528;45.712;9.192;2022-09-09T09:41:34;5.03;;;0.60;;
28459;SDS011;32528;45.712;9.192;2022-09-09T09:43:40;1.38;;;0.70;;
28459;SDS011;32528;45.712;9.192;2022-09-09T09:45:49;1.50;;;0.70;;
28459;SDS011;32528;45.712;9.192;2022-09-09T09:48:25;1.90;;;0.80;;
28459;SDS011;32528;45.712;9.192;2022-09-09T09:50:19;2.63;;;0.90;;
28459;SDS011;32528;45.712;9.192;2022-09-09T09:52:23;3.17;;;1.48;;
28459;SDS011;32528;45.712;9.192;2022-09-09T09:54:27;5.10;;;1.90;;
28459;SDS011;32528;45.712;9.192;2022-09-09T09:56:34;6.15;;;1.55;;
28459;SDS011;32528;45.712;9.192;2022-09-09T10:00:51;3.75;;;1.50;;
28459;SDS011;32528;45.712;9.192;2022-09-09T10:02:56;4.78;;;1.60;;
28459;SDS011;32528;45.712;9.192;2022-09-09T10:05:03;6.20;;;1.50;;
28459;SDS011;32528;45.712;9.192;2022-09-09T10:07:18;4.90;;;1.45;;
28459;SDS011;32528;45.712;9.192;2022-09-09T10:09:22;10.45;;;1.92;;
28459;SDS011;32528;45.712;9.192;2022-09-09T10:11:26;7.25;;;1.20;;
28459;SDS011;32528;45.712;9.192;2022-09-09T10:23:13;9.95;;;2.30;;
28459;SDS011;32528;45.712;9.192;2022-09-09T10:30:51;5.30;;;1.48;;
28459;SDS011;32528;45.712;9.192;2022-09-09T10:33:12;8.13;;;2.03;;
28459;SDS011;32528;45.712;9.192;2022-09-09T10:35:39;13.07;;;1.92;;
28459;SDS011;32528;45.712;9.192;2022-09-09T10:40:32;6.25;;;1.52;;
28459;SDS011;32528;45.712;9.192;2022-09-09T10:42:33;5.65;;;1.67;;
28459;SDS011;32528;45.712;9.192;2022-09-09T10:54:46;9.82;;;1.98;;
28459;SDS011;32528;45.712;9.192;2022-09-09T10:56:30;6.45;;;1.60;;
28459;SDS011;32528;45.712;9.192;2022-09-09T10:58:51;4.03;;;1.58;;
28459;SDS011;32528;45.712;9.192;2022-09-09T11:01:05;5.47;;;1.35;;
28459;SDS011;32528;45.712;9.192;2022-09-09T11:03:29;5.50;;;1.75;;
28459;SDS011;32528;45.712;9.192;2022-09-09T11:08:09;3.17;;;1.25;;
28459;SDS011;32528;45.712;9.192;2022-09-09T11:10:22;4.22;;;1.58;;
28459;SDS011;32528;45.712;9.192;2022-09-09T11:12:36;8.90;;;1.75;;
28459;SDS011;32528;45.712;9.192;2022-09-09T11:14:41;5.40;;;1.63;;
28459;SDS011;32528;45.712;9.192;2022-09-09T11:16:47;8.57;;;2.42;;
28459;SDS011;32528;45.712;9.192;2022-09-09T11:18:55;7.55;;;1.98;;
28459;SDS011;32528;45.712;9.192;2022-09-09T11:21:19;5.03;;;1.65;;
28459;SDS011;32528;45.712;9.192;2022-09-09T11:23:38;6.85;;;2.03;;
28459;SDS011;32528;45.712;9.192;2022-09-09T11:25:47;4.13;;;1.77;;
28459;SDS011;32528;45.712;9.192;2022-09-09T11:30:18;3.85;;;1.95;;
28459;SDS011;32528;45.712;9.192;2022-09-09T11:34:44;4.68;;;2.22;;
28459;SDS011;32528;45.712;9.192;2022-09-09T11:41:32;10.48;;;1.60;;
28459;SDS011;32528;45.712;9.192;2022-09-09T11:43:44;5.82;;;2.08;;
28459;SDS011;32528;45.712;9.192;2022-09-09T11:45:56;5.90;;;2.20;;
28459;SDS011;32528;45.712;9.192;2022-09-09T11:48:03;5.53;;;1.92;;
28459;SDS011;32528;45.712;9.192;2022-09-09T11:52:23;8.35;;;2.15;;
28459;SDS011;32528;45.712;9.192;2022-09-09T11:54:28;3.53;;;1.50;;
28459;SDS011;32528;45.712;9.192;2022-09-09T11:56:43;8.10;;;1.77;;
28459;SDS011;32528;45.712;9.192;2022-09-09T11:58:53;4.38;;;1.77;;
28459;SDS011;32528;45.712;9.192;2022-09-09T12:01:00;4.30;;;1.85;;
28459;SDS011;32528;45.712;9.192;2022-09-09T12:05:50;3.97;;;1.50;;
28459;SDS011;32528;45.712;9.192;2022-09-09T12:07:52;4.85;;;1.70;;
28459;SDS011;32528;45.712;9.192;2022-09-09T12:12:28;4.15;;;1.70;;
28459;SDS011;32528;45.712;9.192;2022-09-09T12:14:36;4.05;;;1.73;;
28459;SDS011;32528;45.712;9.192;2022-09-09T12:16:41;6.93;;;1.55;;
28459;SDS011;32528;45.712;9.192;2022-09-09T12:18:42;2.85;;;1.58;;
28459;SDS011;32528;45.712;9.192;2022-09-09T12:23:30;5.32;;;1.10;;
28459;SDS011;32528;45.712;9.192;2022-09-09T12:27:55;4.65;;;1.45;;
28459;SDS011;32528;45.712;9.192;2022-09-09T12:30:21;4.93;;;1.63;;
28459;SDS011;32528;45.712;9.192;2022-09-09T12:32:26;8.35;;;2.05;;
28459;SDS011;32528;45.712;9.192;2022-09-09T12:36:39;2.78;;;1.00;;
28459;SDS011;32528;45.712;9.192;2022-09-09T12:38:41;4.80;;;1.45;;
28459;SDS011;32528;45.712;9.192;2022-09-09T12:40:43;4.18;;;1.52;;
28459;SDS011;32528;45.712;9.192;2022-09-09T12:42:55;6.68;;;1.40;;
28459;SDS011;32528;45.712;9.192;2022-09-09T12:44:57;4.25;;;1.15;;
28459;SDS011;32528;45.712;9.192;2022-09-09T12:47:00;5.20;;;1.35;;
28459;SDS011;32528;45.712;9.192;2022-09-09T12:49:03;3.85;;;1.30;;
28459;SDS011;32528;45.712;9.192;2022-09-09T12:51:17;4.97;;;1.02;;
28459;SDS011;32528;45.712;9.192;2022-09-09T12:53:33;6.43;;;1.30;;
28459;SDS011;32528;45.712;9.192;2022-09-09T12:55:38;2.90;;;1.57;;
28459;SDS011;32528;45.712;9.192;2022-09-09T12:57:49;4.97;;;1.45;;
28459;SDS011;32528;45.712;9.192;2022-09-09T12:59:50;13.05;;;1.55;;
28459;SDS011;32528;45.712;9.192;2022-09-09T13:01:57;5.55;;;1.23;;
28459;SDS011;32528;45.712;9.192;2022-09-09T13:03:59;5.60;;;1.40;;
28459;SDS011;32528;45.712;9.192;2022-09-09T13:06:13;3.05;;;1.02;;
28459;SDS011;32528;45.712;9.192;2022-09-09T13:08:25;3.85;;;1.63;;
28459;SDS011;32528;45.712;9.192;2022-09-09T13:10:27;3.70;;;1.38;;
28459;SDS011;32528;45.712;9.192;2022-09-09T13:12:30;7.38;;;1.63;;
28459;SDS011;32528;45.712;9.192;2022-09-09T13:14:32;6.82;;;1.52;;
28459;SDS011;32528;45.712;9.192;2022-09-09T13:16:37;4.20;;;1.30;;
28459;SDS011;32528;45.712;9.192;2022-09-09T13:18:40;7.00;;;1.20;;
28459;SDS011;32528;45.712;9.192;2022-09-09T13:20:45;5.75;;;1.20;;
28459;SDS011;32528;45.712;9.192;2022-09-09T13:22:48;4.20;;;1.25;;
28459;SDS011;32528;45.712;9.192;2022-09-09T13:25:24;3.60;;;1.40;;
28459;SDS011;32528;45.712;9.192;2022-09-09T13:27:23;7.95;;;1.33;;
28459;SDS011;32528;45.712;9.192;2022-09-09T13:29:41;2.17;;;0.98;;
28459;SDS011;32528;45.712;9.192;2022-09-09T13:32:03;2.05;;;1.10;;
28459;SDS011;32528;45.712;9.192;2022-09-09T13:36:30;10.00;;;1.73;;
28459;SDS011;32528;45.712;9.192;2022-09-09T13:38:35;1.34;;;1.04;;
28459;SDS011;32528;45.712;9.192;2022-09-09T13:40:38;7.18;;;1.73;;
28459;SDS011;32528;45.712;9.192;2022-09-09T13:42:39;5.22;;;1.42;;
28459;SDS011;32528;45.712;9.192;2022-09-09T13:44:42;5.13;;;1.50;;
28459;SDS011;32528;45.712;9.192;2022-09-09T13:46:46;2.90;;;1.27;;
28459;SDS011;32528;45.712;9.192;2022-09-09T13:48:57;5.68;;;1.02;;
28459;SDS011;32528;45.712;9.192;2022-09-09T13:51:00;4.88;;;1.27;;
28459;SDS011;32528;45.712;9.192;2022-09-09T13:53:04;2.85;;;1.40;;
28459;SDS011;32528;45.712;9.192;2022-09-09T13:55:05;2.50;;;1.20;;
28459;SDS011;32528;45.712;9.192;2022-09-09T13:57:15;7.75;;;1.58;;
28459;SDS011;32528;45.712;9.192;2022-09-09T13:59:18;3.70;;;1.42;;
28459;SDS011;32528;45.712;9.192;2022-09-09T14:01:24;3.95;;;1.45;;
28459;SDS011;32528;45.712;9.192;2022-09-09T14:03:25;4.95;;;1.40;;
28459;SDS011;32528;45.712;9.192;2022-09-09T14:05:25;4.68;;;1.30;;
28459;SDS011;32528;45.712;9.192;2022-09-09T14:07:27;5.00;;;1.33;;
28459;SDS011;32528;45.712;9.192;2022-09-09T14:09:29;6.80;;;1.35;;
28459;SDS011;32528;45.712;9.192;2022-09-09T14:11:29;6.60;;;1.13;;
28459;SDS011;32528;45.712;9.192;2022-09-09T14:13:30;7.63;;;1.20;;
28459;SDS011;32528;45.712;9.192;2022-09-09T14:15:31;8.90;;;1.00;;
28459;SDS011;32528;45.712;9.192;2022-09-09T14:17:32;2.92;;;1.48;;
28459;SDS011;32528;45.712;9.192;2022-09-09T14:19:33;4.57;;;1.58;;
28459;SDS011;32528;45.712;9.192;2022-09-09T14:21:35;4.78;;;1.50;;
28459;SDS011;32528;45.712;9.192;2022-09-09T14:23:36;5.03;;;1.30;;
28459;SDS011;32528;45.712;9.192;2022-09-09T14:25:41;6.97;;;1.38;;
28459;SDS011;32528;45.712;9.192;2022-09-09T14:27:43;8.65;;;2.13;;
28459;SDS011;32528;45.712;9.192;2022-09-09T14:29:45;4.50;;;1.50;;
28459;SDS011;32528;45.712;9.192;2022-09-09T14:31:46;10.43;;;1.80;;
28459;SDS011;32528;45.712;9.192;2022-09-09T14:33:47;10.10;;;2.40;;
28459;SDS011;32528;45.712;9.192;2022-09-09T14:35:48;4.45;;;1.55;;
28459;SDS011;32528;45.712;9.192;2022-09-09T14:37:56;8.30;;;1.10;;
28459;SDS011;32528;45.712;9.192;2022-09-09T14:39:57;3.38;;;1.27;;
28459;SDS011;32528;45.712;9.192;2022-09-09T14:41:58;5.00;;;2.10;;
28459;SDS011;32528;45.712;9.192;2022-09-09T14:43:59;4.57;;;1.13;;